sensor_id;sensor_type;location;lat;lon;timestamp;temperature;humidity
39099;DHT22;24844;52.380;7.018;2023-08-20T00:01:57;17.60;99.90
39099;DHT22;24844;52.380;7.018;2023-08-20T00:04:25;17.60;99.90
39099;DHT22;24844;52.380;7.018;2023-08-20T00:06:52;17.60;99.90
39099;DHT22;24844;52.380;7.018;2023-08-20T00:09:17;17.30;99.90
39099;DHT22;24844;52.380;7.018;2023-08-20T00:11:43;17.30;99.90
39099;DHT22;24844;52.380;7.018;2023-08-20T00:14:14;17.20;99.90
39099;DHT22;24844;52.380;7.018;2023-08-20T00:16:40;17.00;99.90
39099;DHT22;24844;52.380;7.018;2023-08-20T00:19:06;17.10;99.90
39099;DHT22;24844;52.380;7.018;2023-08-20T00:21:32;17.20;99.90
39099;DHT22;24844;52.380;7.018;2023-08-20T00:23:58;17.20;99.90
39099;DHT22;24844;52.380;7.018;2023-08-20T00:26:24;16.90;99.90
39099;DHT22;24844;52.380;7.018;2023-08-20T00:28:49;16.90;99.90
39099;DHT22;24844;52.380;7.018;2023-08-20T00:31:15;17.00;99.90
39099;DHT22;24844;52.380;7.018;2023-08-20T00:33:41;17.00;99.90
39099;DHT22;24844;52.380;7.018;2023-08-20T00:36:06;16.90;99.90
39099;DHT22;24844;52.380;7.018;2023-08-20T00:38:32;16.80;99.90
39099;DHT22;24844;52.380;7.018;2023-08-20T00:40:58;16.80;99.90
39099;DHT22;24844;52.380;7.018;2023-08-20T00:43:23;16.90;99.90
39099;DHT22;24844;52.380;7.018;2023-08-20T00:45:49;17.10;99.90
39099;DHT22;24844;52.380;7.018;2023-08-20T00:48:15;17.30;99.90
39099;DHT22;24844;52.380;7.018;2023-08-20T00:50:41;17.40;99.90
39099;DHT22;24844;52.380;7.018;2023-08-20T00:53:08;17.40;99.90
39099;DHT22;24844;52.380;7.018;2023-08-20T00:55:36;17.40;99.90
39099;DHT22;24844;52.380;7.018;2023-08-20T00:58:02;17.30;99.90
39099;DHT22;24844;52.380;7.018;2023-08-20T01:00:27;17.40;99.90
39099;DHT22;24844;52.380;7.018;2023-08-20T01:02:53;17.40;99.90
39099;DHT22;24844;52.380;7.018;2023-08-20T01:05:19;17.30;99.90
39099;DHT22;24844;52.380;7.018;2023-08-20T01:08:07;17.30;99.90
39099;DHT22;24844;52.380;7.018;2023-08-20T01:10:51;17.30;99.90
39099;DHT22;24844;52.380;7.018;2023-08-20T01:13:18;17.30;99.90
39099;DHT22;24844;52.380;7.018;2023-08-20T01:15:44;17.20;99.90
39099;DHT22;24844;52.380;7.018;2023-08-20T01:18:10;17.20;99.90
39099;DHT22;24844;52.380;7.018;2023-08-20T01:20:43;17.20;99.90
39099;DHT22;24844;52.380;7.018;2023-08-20T01:28:39;17.10;99.90
39099;DHT22;24844;52.380;7.018;2023-08-20T01:31:06;17.00;99.90
39099;DHT22;24844;52.380;7.018;2023-08-20T01:33:33;16.90;99.90
39099;DHT22;24844;52.380;7.018;2023-08-20T01:35:59;16.90;99.90
39099;DHT22;24844;52.380;7.018;2023-08-20T01:38:25;17.00;99.90
39099;DHT22;24844;52.380;7.018;2023-08-20T01:40:50;17.00;99.90
39099;DHT22;24844;52.380;7.018;2023-08-20T01:43:16;17.00;99.90
39099;DHT22;24844;52.380;7.018;2023-08-20T01:45:42;17.00;99.90
39099;DHT22;24844;52.380;7.018;2023-08-20T01:48:07;17.00;99.90
39099;DHT22;24844;52.380;7.018;2023-08-20T01:50:34;16.80;99.90
39099;DHT22;24844;52.380;7.018;2023-08-20T01:53:00;16.80;99.90
39099;DHT22;24844;52.380;7.018;2023-08-20T01:55:26;17.00;99.90
39099;DHT22;24844;52.380;7.018;2023-08-20T01:57:52;17.00;99.90
39099;DHT22;24844;52.380;7.018;2023-08-20T02:00:17;17.00;99.90
39099;DHT22;24844;52.380;7.018;2023-08-20T02:02:43;16.90;99.90
39099;DHT22;24844;52.380;7.018;2023-08-20T02:05:08;16.90;99.90
39099;DHT22;24844;52.380;7.018;2023-08-20T02:07:36;16.90;99.90
39099;DHT22;24844;52.380;7.018;2023-08-20T02:10:01;16.80;99.90
39099;DHT22;24844;52.380;7.018;2023-08-20T02:12:27;16.80;99.90
39099;DHT22;24844;52.380;7.018;2023-08-20T02:14:53;16.80;99.90
39099;DHT22;24844;52.380;7.018;2023-08-20T02:17:19;16.90;99.90
39099;DHT22;24844;52.380;7.018;2023-08-20T02:19:44;16.80;99.90
39099;DHT22;24844;52.380;7.018;2023-08-20T02:22:10;16.80;99.90
39099;DHT22;24844;52.380;7.018;2023-08-20T02:24:35;16.60;99.90
39099;DHT22;24844;52.380;7.018;2023-08-20T02:27:02;16.60;99.90
39099;DHT22;24844;52.380;7.018;2023-08-20T02:29:28;16.60;99.90
39099;DHT22;24844;52.380;7.018;2023-08-20T02:31:54;16.60;99.90
39099;DHT22;24844;52.380;7.018;2023-08-20T02:34:19;16.80;99.90
39099;DHT22;24844;52.380;7.018;2023-08-20T02:36:45;16.80;99.90
39099;DHT22;24844;52.380;7.018;2023-08-20T02:39:10;16.80;99.90
39099;DHT22;24844;52.380;7.018;2023-08-20T02:41:36;16.40;99.90
39099;DHT22;24844;52.380;7.018;2023-08-20T02:44:02;16.30;99.90
39099;DHT22;24844;52.380;7.018;2023-08-20T02:46:28;16.40;99.90
39099;DHT22;24844;52.380;7.018;2023-08-20T02:48:54;16.70;99.90
39099;DHT22;24844;52.380;7.018;2023-08-20T02:51:20;16.80;99.90
39099;DHT22;24844;52.380;7.018;2023-08-20T02:53:45;16.90;99.90
39099;DHT22;24844;52.380;7.018;2023-08-20T02:56:11;16.90;99.90
39099;DHT22;24844;52.380;7.018;2023-08-20T02:58:36;16.90;99.90
39099;DHT22;24844;52.380;7.018;2023-08-20T03:01:02;16.70;99.90
39099;DHT22;24844;52.380;7.018;2023-08-20T03:03:28;16.60;99.90
39099;DHT22;24844;52.380;7.018;2023-08-20T03:05:53;16.50;99.90
39099;DHT22;24844;52.380;7.018;2023-08-20T03:08:19;16.50;99.90
39099;DHT22;24844;52.380;7.018;2023-08-20T03:10:45;16.60;99.90
39099;DHT22;24844;52.380;7.018;2023-08-20T03:13:10;16.70;99.90
39099;DHT22;24844;52.380;7.018;2023-08-20T03:15:37;16.60;99.90
39099;DHT22;24844;52.380;7.018;2023-08-20T03:18:03;16.70;99.90
39099;DHT22;24844;52.380;7.018;2023-08-20T03:20:28;16.70;99.90
39099;DHT22;24844;52.380;7.018;2023-08-20T03:22:56;16.70;99.90
39099;DHT22;24844;52.380;7.018;2023-08-20T03:25:22;16.80;99.90
39099;DHT22;24844;52.380;7.018;2023-08-20T03:27:47;16.70;99.90
39099;DHT22;24844;52.380;7.018;2023-08-20T03:30:13;16.70;99.90
39099;DHT22;24844;52.380;7.018;2023-08-20T03:32:39;16.80;99.90
39099;DHT22;24844;52.380;7.018;2023-08-20T03:35:05;16.70;99.90
39099;DHT22;24844;52.380;7.018;2023-08-20T03:37:30;16.60;99.90
39099;DHT22;24844;52.380;7.018;2023-08-20T03:39:56;16.60;99.90
39099;DHT22;24844;52.380;7.018;2023-08-20T03:42:21;16.60;99.90
39099;DHT22;24844;52.380;7.018;2023-08-20T03:44:47;16.60;99.90
39099;DHT22;24844;52.380;7.018;2023-08-20T03:47:13;16.60;99.90
39099;DHT22;24844;52.380;7.018;2023-08-20T03:49:38;16.50;99.90
39099;DHT22;24844;52.380;7.018;2023-08-20T03:52:04;16.50;99.90
39099;DHT22;24844;52.380;7.018;2023-08-20T03:54:32;16.50;99.90
39099;DHT22;24844;52.380;7.018;2023-08-20T03:56:58;16.60;99.90
39099;DHT22;24844;52.380;7.018;2023-08-20T03:59:23;16.70;99.90
39099;DHT22;24844;52.380;7.018;2023-08-20T04:01:49;16.70;99.90
39099;DHT22;24844;52.380;7.018;2023-08-20T04:04:14;16.70;99.90
39099;DHT22;24844;52.380;7.018;2023-08-20T04:06:40;16.70;99.90
39099;DHT22;24844;52.380;7.018;2023-08-20T04:09:06;16.80;99.90
39099;DHT22;24844;52.380;7.018;2023-08-20T04:11:32;16.80;99.90
39099;DHT22;24844;52.380;7.018;2023-08-20T04:13:57;16.80;99.90
39099;DHT22;24844;52.380;7.018;2023-08-20T04:16:24;16.80;99.90
39099;DHT22;24844;52.380;7.018;2023-08-20T04:18:49;16.80;99.90
39099;DHT22;24844;52.380;7.018;2023-08-20T04:21:15;16.80;99.90
39099;DHT22;24844;52.380;7.018;2023-08-20T04:23:40;16.70;99.90
39099;DHT22;24844;52.380;7.018;2023-08-20T04:26:07;16.70;99.90
39099;DHT22;24844;52.380;7.018;2023-08-20T04:28:33;16.80;99.90
39099;DHT22;24844;52.380;7.018;2023-08-20T04:30:58;16.90;99.90
39099;DHT22;24844;52.380;7.018;2023-08-20T04:33:25;16.90;99.90
39099;DHT22;24844;52.380;7.018;2023-08-20T04:35:51;16.80;99.90
39099;DHT22;24844;52.380;7.018;2023-08-20T04:38:17;16.70;99.90
39099;DHT22;24844;52.380;7.018;2023-08-20T04:40:42;16.70;99.90
39099;DHT22;24844;52.380;7.018;2023-08-20T04:43:10;16.70;99.90
39099;DHT22;24844;52.380;7.018;2023-08-20T04:45:37;16.70;99.90
39099;DHT22;24844;52.380;7.018;2023-08-20T04:48:03;16.80;99.90
39099;DHT22;24844;52.380;7.018;2023-08-20T04:50:28;16.80;99.90
39099;DHT22;24844;52.380;7.018;2023-08-20T04:52:54;16.90;99.90
39099;DHT22;24844;52.380;7.018;2023-08-20T04:55:20;17.10;99.90
39099;DHT22;24844;52.380;7.018;2023-08-20T04:57:45;17.30;99.90
39099;DHT22;24844;52.380;7.018;2023-08-20T05:00:11;17.20;99.90
39099;DHT22;24844;52.380;7.018;2023-08-20T05:02:37;17.40;99.90
39099;DHT22;24844;52.380;7.018;2023-08-20T05:05:03;17.60;99.90
39099;DHT22;24844;52.380;7.018;2023-08-20T05:07:29;17.60;99.90
39099;DHT22;24844;52.380;7.018;2023-08-20T05:09:54;18.00;99.90
39099;DHT22;24844;52.380;7.018;2023-08-20T05:12:20;18.40;99.90
39099;DHT22;24844;52.380;7.018;2023-08-20T05:14:46;18.60;99.90
39099;DHT22;24844;52.380;7.018;2023-08-20T05:17:11;18.90;99.90
39099;DHT22;24844;52.380;7.018;2023-08-20T05:19:37;19.10;99.90
39099;DHT22;24844;52.380;7.018;2023-08-20T05:22:02;19.30;99.90
39099;DHT22;24844;52.380;7.018;2023-08-20T05:24:28;19.40;99.90
39099;DHT22;24844;52.380;7.018;2023-08-20T05:27:07;19.50;99.90
39099;DHT22;24844;52.380;7.018;2023-08-20T05:29:33;19.50;99.90
39099;DHT22;24844;52.380;7.018;2023-08-20T05:31:58;19.40;99.90
39099;DHT22;24844;52.380;7.018;2023-08-20T05:34:24;18.90;99.90
39099;DHT22;24844;52.380;7.018;2023-08-20T05:36:50;18.80;99.90
39099;DHT22;24844;52.380;7.018;2023-08-20T05:39:15;18.50;99.90
39099;DHT22;24844;52.380;7.018;2023-08-20T05:41:41;18.40;99.90
39099;DHT22;24844;52.380;7.018;2023-08-20T05:44:07;18.30;99.90
39099;DHT22;24844;52.380;7.018;2023-08-20T05:46:32;18.40;99.90
39099;DHT22;24844;52.380;7.018;2023-08-20T05:48:58;18.60;99.90
39099;DHT22;24844;52.380;7.018;2023-08-20T05:51:23;18.90;99.90
39099;DHT22;24844;52.380;7.018;2023-08-20T05:53:49;19.10;99.90
39099;DHT22;24844;52.380;7.018;2023-08-20T05:56:14;19.20;99.90
39099;DHT22;24844;52.380;7.018;2023-08-20T05:58:40;19.30;99.90
39099;DHT22;24844;52.380;7.018;2023-08-20T06:01:06;19.40;99.90
39099;DHT22;24844;52.380;7.018;2023-08-20T06:03:31;19.50;99.90
39099;DHT22;24844;52.380;7.018;2023-08-20T06:05:57;19.60;99.90
39099;DHT22;24844;52.380;7.018;2023-08-20T06:08:23;19.70;99.90
39099;DHT22;24844;52.380;7.018;2023-08-20T06:10:50;19.80;99.90
39099;DHT22;24844;52.380;7.018;2023-08-20T06:13:16;20.00;99.90
39099;DHT22;24844;52.380;7.018;2023-08-20T06:15:42;20.10;99.90
39099;DHT22;24844;52.380;7.018;2023-08-20T06:18:07;20.20;99.90
39099;DHT22;24844;52.380;7.018;2023-08-20T06:20:33;20.20;99.90
39099;DHT22;24844;52.380;7.018;2023-08-20T06:22:58;20.30;99.90
39099;DHT22;24844;52.380;7.018;2023-08-20T06:25:24;20.40;99.90
39099;DHT22;24844;52.380;7.018;2023-08-20T06:27:49;20.50;99.90
39099;DHT22;24844;52.380;7.018;2023-08-20T06:30:15;20.60;99.90
39099;DHT22;24844;52.380;7.018;2023-08-20T06:32:43;20.20;99.90
39099;DHT22;24844;52.380;7.018;2023-08-20T06:35:09;19.80;99.90
39099;DHT22;24844;52.380;7.018;2023-08-20T06:37:35;19.70;99.90
39099;DHT22;24844;52.380;7.018;2023-08-20T06:40:01;20.00;99.90
39099;DHT22;24844;52.380;7.018;2023-08-20T06:42:26;20.10;99.90
39099;DHT22;24844;52.380;7.018;2023-08-20T06:44:52;20.50;99.90
39099;DHT22;24844;52.380;7.018;2023-08-20T06:47:17;20.70;99.90
39099;DHT22;24844;52.380;7.018;2023-08-20T06:49:43;20.90;99.90
39099;DHT22;24844;52.380;7.018;2023-08-20T06:52:08;21.00;99.90
39099;DHT22;24844;52.380;7.018;2023-08-20T06:54:34;21.20;99.90
39099;DHT22;24844;52.380;7.018;2023-08-20T06:57:00;21.30;99.90
39099;DHT22;24844;52.380;7.018;2023-08-20T06:59:26;21.50;99.90
39099;DHT22;24844;52.380;7.018;2023-08-20T07:01:52;21.60;99.90
39099;DHT22;24844;52.380;7.018;2023-08-20T07:04:18;21.70;99.90
39099;DHT22;24844;52.380;7.018;2023-08-20T07:06:43;21.90;99.90
39099;DHT22;24844;52.380;7.018;2023-08-20T07:09:09;22.00;99.90
39099;DHT22;24844;52.380;7.018;2023-08-20T07:11:34;22.10;99.90
39099;DHT22;24844;52.380;7.018;2023-08-20T07:14:00;22.20;99.90
39099;DHT22;24844;52.380;7.018;2023-08-20T07:16:26;22.30;99.90
39099;DHT22;24844;52.380;7.018;2023-08-20T07:18:51;22.30;99.90
39099;DHT22;24844;52.380;7.018;2023-08-20T07:21:18;22.40;99.90
39099;DHT22;24844;52.380;7.018;2023-08-20T07:23:44;22.50;99.90
39099;DHT22;24844;52.380;7.018;2023-08-20T07:26:10;22.70;99.90
39099;DHT22;24844;52.380;7.018;2023-08-20T07:28:37;22.70;99.90
39099;DHT22;24844;52.380;7.018;2023-08-20T07:31:22;22.70;99.90
39099;DHT22;24844;52.380;7.018;2023-08-20T07:33:49;23.00;99.90
39099;DHT22;24844;52.380;7.018;2023-08-20T07:36:15;23.40;99.90
39099;DHT22;24844;52.380;7.018;2023-08-20T07:38:42;23.80;99.90
39099;DHT22;24844;52.380;7.018;2023-08-20T07:41:11;24.40;99.90
39099;DHT22;24844;52.380;7.018;2023-08-20T07:43:38;25.20;99.90
39099;DHT22;24844;52.380;7.018;2023-08-20T07:46:04;26.30;99.90
39099;DHT22;24844;52.380;7.018;2023-08-20T07:48:30;27.60;99.90
39099;DHT22;24844;52.380;7.018;2023-08-20T07:50:56;28.30;99.90
39099;DHT22;24844;52.380;7.018;2023-08-20T07:53:21;29.20;99.90
39099;DHT22;24844;52.380;7.018;2023-08-20T07:55:47;30.20;99.90
39099;DHT22;24844;52.380;7.018;2023-08-20T07:58:12;31.00;99.90
39099;DHT22;24844;52.380;7.018;2023-08-20T08:00:38;31.60;99.10
39099;DHT22;24844;52.380;7.018;2023-08-20T08:03:04;32.40;97.20
39099;DHT22;24844;52.380;7.018;2023-08-20T08:05:29;32.90;94.30
39099;DHT22;24844;52.380;7.018;2023-08-20T08:07:55;33.90;93.00
39099;DHT22;24844;52.380;7.018;2023-08-20T08:10:21;33.80;80.40
39099;DHT22;24844;52.380;7.018;2023-08-20T08:12:46;33.30;85.00
39099;DHT22;24844;52.380;7.018;2023-08-20T08:15:12;34.00;86.00
39099;DHT22;24844;52.380;7.018;2023-08-20T08:17:38;34.10;84.20
39099;DHT22;24844;52.380;7.018;2023-08-20T08:20:05;34.00;84.50
39099;DHT22;24844;52.380;7.018;2023-08-20T08:22:31;35.10;82.50
39099;DHT22;24844;52.380;7.018;2023-08-20T08:24:56;35.30;80.60
39099;DHT22;24844;52.380;7.018;2023-08-20T08:27:22;36.20;81.10
39099;DHT22;24844;52.380;7.018;2023-08-20T08:29:47;36.40;79.10
39099;DHT22;24844;52.380;7.018;2023-08-20T08:32:13;36.00;76.40
39099;DHT22;24844;52.380;7.018;2023-08-20T08:34:39;36.40;76.90
39099;DHT22;24844;52.380;7.018;2023-08-20T08:37:04;36.80;75.70
39099;DHT22;24844;52.380;7.018;2023-08-20T08:39:30;37.50;74.40
39099;DHT22;24844;52.380;7.018;2023-08-20T08:42:00;37.70;73.20
39099;DHT22;24844;52.380;7.018;2023-08-20T08:44:31;38.20;71.40
39099;DHT22;24844;52.380;7.018;2023-08-20T08:46:57;37.70;70.70
39099;DHT22;24844;52.380;7.018;2023-08-20T08:49:23;38.20;69.60
39099;DHT22;24844;52.380;7.018;2023-08-20T08:51:51;38.90;73.00
39099;DHT22;24844;52.380;7.018;2023-08-20T08:56:45;38.60;80.00
39099;DHT22;24844;52.380;7.018;2023-08-20T08:59:10;38.90;80.00
39099;DHT22;24844;52.380;7.018;2023-08-20T09:01:39;39.20;81.10
39099;DHT22;24844;52.380;7.018;2023-08-20T09:28:48;40.40;61.10
39099;DHT22;24844;52.380;7.018;2023-08-20T09:31:14;40.50;61.30
39099;DHT22;24844;52.380;7.018;2023-08-20T09:33:51;40.30;61.10
39099;DHT22;24844;52.380;7.018;2023-08-20T09:36:17;39.90;59.10
39099;DHT22;24844;52.380;7.018;2023-08-20T09:38:43;39.30;61.20
39099;DHT22;24844;52.380;7.018;2023-08-20T09:41:09;39.60;61.10
39099;DHT22;24844;52.380;7.018;2023-08-20T09:43:38;39.60;60.90
39099;DHT22;24844;52.380;7.018;2023-08-20T09:46:05;39.70;60.30
39099;DHT22;24844;52.380;7.018;2023-08-20T09:48:34;39.80;59.90
39099;DHT22;24844;52.380;7.018;2023-08-20T09:51:10;39.80;59.40
39099;DHT22;24844;52.380;7.018;2023-08-20T09:53:39;40.40;58.50
39099;DHT22;24844;52.380;7.018;2023-08-20T09:56:36;40.50;59.40
39099;DHT22;24844;52.380;7.018;2023-08-20T09:59:04;40.90;60.00
39099;DHT22;24844;52.380;7.018;2023-08-20T10:01:30;40.90;58.50
39099;DHT22;24844;52.380;7.018;2023-08-20T10:03:56;40.60;58.10
39099;DHT22;24844;52.380;7.018;2023-08-20T10:06:23;40.60;58.20
39099;DHT22;24844;52.380;7.018;2023-08-20T10:08:50;40.40;58.50
39099;DHT22;24844;52.380;7.018;2023-08-20T10:11:16;41.20;57.80
39099;DHT22;24844;52.380;7.018;2023-08-20T10:13:42;41.60;57.70
39099;DHT22;24844;52.380;7.018;2023-08-20T10:16:10;41.60;57.50
39099;DHT22;24844;52.380;7.018;2023-08-20T10:18:37;40.80;57.10
39099;DHT22;24844;52.380;7.018;2023-08-20T10:21:03;41.50;55.90
39099;DHT22;24844;52.380;7.018;2023-08-20T10:23:30;41.10;55.80
39099;DHT22;24844;52.380;7.018;2023-08-20T10:26:10;41.20;55.90
39099;DHT22;24844;52.380;7.018;2023-08-20T10:28:36;40.80;55.80
39099;DHT22;24844;52.380;7.018;2023-08-20T10:31:10;40.50;56.40
39099;DHT22;24844;52.380;7.018;2023-08-20T10:33:55;41.60;56.30
39099;DHT22;24844;52.380;7.018;2023-08-20T10:36:23;42.00;55.80
39099;DHT22;24844;52.380;7.018;2023-08-20T10:38:56;42.10;54.90
39099;DHT22;24844;52.380;7.018;2023-08-20T10:41:25;42.00;54.50
39099;DHT22;24844;52.380;7.018;2023-08-20T10:43:51;41.90;55.30
39099;DHT22;24844;52.380;7.018;2023-08-20T10:46:22;41.70;55.70
39099;DHT22;24844;52.380;7.018;2023-08-20T10:51:17;41.90;54.90
39099;DHT22;24844;52.380;7.018;2023-08-20T10:53:50;42.80;52.40
39099;DHT22;24844;52.380;7.018;2023-08-20T11:01:38;42.00;52.10
39099;DHT22;24844;52.380;7.018;2023-08-20T11:04:04;42.20;52.00
39099;DHT22;24844;52.380;7.018;2023-08-20T11:06:33;42.60;51.40
39099;DHT22;24844;52.380;7.018;2023-08-20T11:08:59;41.90;51.80
39099;DHT22;24844;52.380;7.018;2023-08-20T11:11:25;41.30;51.30
39099;DHT22;24844;52.380;7.018;2023-08-20T11:13:51;41.20;50.90
39099;DHT22;24844;52.380;7.018;2023-08-20T11:16:17;40.20;51.80
39099;DHT22;24844;52.380;7.018;2023-08-20T11:18:43;38.60;53.70
39099;DHT22;24844;52.380;7.018;2023-08-20T11:21:08;37.30;55.00
39099;DHT22;24844;52.380;7.018;2023-08-20T11:23:35;35.60;56.60
39099;DHT22;24844;52.380;7.018;2023-08-20T11:26:01;34.90;57.40
39099;DHT22;24844;52.380;7.018;2023-08-20T11:28:28;34.00;57.30
39099;DHT22;24844;52.380;7.018;2023-08-20T11:30:54;33.00;58.00
39099;DHT22;24844;52.380;7.018;2023-08-20T11:33:22;32.60;58.00
39099;DHT22;24844;52.380;7.018;2023-08-20T11:35:48;31.90;60.10
39099;DHT22;24844;52.380;7.018;2023-08-20T11:38:14;31.30;60.80
39099;DHT22;24844;52.380;7.018;2023-08-20T11:40:39;30.90;62.60
39099;DHT22;24844;52.380;7.018;2023-08-20T11:43:06;30.80;62.30
39099;DHT22;24844;52.380;7.018;2023-08-20T11:45:32;30.80;62.60
39099;DHT22;24844;52.380;7.018;2023-08-20T11:48:00;30.40;62.90
39099;DHT22;24844;52.380;7.018;2023-08-20T11:50:26;30.50;61.60
39099;DHT22;24844;52.380;7.018;2023-08-20T11:52:52;30.30;62.30
39099;DHT22;24844;52.380;7.018;2023-08-20T11:55:23;30.30;63.30
39099;DHT22;24844;52.380;7.018;2023-08-20T11:57:52;30.10;63.60
39099;DHT22;24844;52.380;7.018;2023-08-20T12:00:31;30.10;63.80
39099;DHT22;24844;52.380;7.018;2023-08-20T12:02:57;29.70;64.80
39099;DHT22;24844;52.380;7.018;2023-08-20T12:05:30;29.50;65.30
39099;DHT22;24844;52.380;7.018;2023-08-20T12:08:03;29.40;67.50
39099;DHT22;24844;52.380;7.018;2023-08-20T12:10:30;29.00;67.00
39099;DHT22;24844;52.380;7.018;2023-08-20T12:12:57;29.30;65.90
39099;DHT22;24844;52.380;7.018;2023-08-20T12:15:24;29.60;65.10
39099;DHT22;24844;52.380;7.018;2023-08-20T12:18:05;29.20;66.60
39099;DHT22;24844;52.380;7.018;2023-08-20T12:20:33;29.30;66.30
39099;DHT22;24844;52.380;7.018;2023-08-20T12:23:00;28.80;67.20
39099;DHT22;24844;52.380;7.018;2023-08-20T12:25:26;28.60;67.70
39099;DHT22;24844;52.380;7.018;2023-08-20T12:27:52;28.70;67.20
39099;DHT22;24844;52.380;7.018;2023-08-20T12:30:17;28.90;67.00
39099;DHT22;24844;52.380;7.018;2023-08-20T12:32:43;28.70;67.30
39099;DHT22;24844;52.380;7.018;2023-08-20T12:35:08;28.70;67.10
39099;DHT22;24844;52.380;7.018;2023-08-20T12:37:34;28.60;67.30
39099;DHT22;24844;52.380;7.018;2023-08-20T12:40:00;28.50;66.20
39099;DHT22;24844;52.380;7.018;2023-08-20T12:42:26;28.50;65.60
39099;DHT22;24844;52.380;7.018;2023-08-20T12:44:51;28.40;67.10
39099;DHT22;24844;52.380;7.018;2023-08-20T12:47:17;28.30;66.90
39099;DHT22;24844;52.380;7.018;2023-08-20T12:49:42;28.00;67.70
39099;DHT22;24844;52.380;7.018;2023-08-20T12:52:08;28.00;68.10
39099;DHT22;24844;52.380;7.018;2023-08-20T12:54:34;27.90;68.30
39099;DHT22;24844;52.380;7.018;2023-08-20T12:56:59;28.00;68.50
39099;DHT22;24844;52.380;7.018;2023-08-20T12:59:25;27.90;67.20
39099;DHT22;24844;52.380;7.018;2023-08-20T13:01:50;28.00;68.40
39099;DHT22;24844;52.380;7.018;2023-08-20T13:04:16;28.10;68.10
39099;DHT22;24844;52.380;7.018;2023-08-20T13:06:42;27.80;69.10
39099;DHT22;24844;52.380;7.018;2023-08-20T13:09:08;28.10;68.30
39099;DHT22;24844;52.380;7.018;2023-08-20T13:11:36;28.20;67.10
39099;DHT22;24844;52.380;7.018;2023-08-20T13:14:03;28.10;68.50
39099;DHT22;24844;52.380;7.018;2023-08-20T13:16:28;27.90;67.10
39099;DHT22;24844;52.380;7.018;2023-08-20T13:18:54;27.60;66.10
39099;DHT22;24844;52.380;7.018;2023-08-20T13:21:20;27.70;67.40
39099;DHT22;24844;52.380;7.018;2023-08-20T13:23:46;27.90;66.50
39099;DHT22;24844;52.380;7.018;2023-08-20T13:26:12;27.80;66.50
39099;DHT22;24844;52.380;7.018;2023-08-20T13:28:38;27.80;66.30
39099;DHT22;24844;52.380;7.018;2023-08-20T13:31:03;27.70;66.80
39099;DHT22;24844;52.380;7.018;2023-08-20T13:33:29;27.70;67.10
39099;DHT22;24844;52.380;7.018;2023-08-20T13:35:54;28.00;65.70
39099;DHT22;24844;52.380;7.018;2023-08-20T13:38:21;27.90;66.40
39099;DHT22;24844;52.380;7.018;2023-08-20T13:40:47;27.90;66.70
39099;DHT22;24844;52.380;7.018;2023-08-20T13:43:14;27.90;66.50
39099;DHT22;24844;52.380;7.018;2023-08-20T13:45:39;27.90;66.40
39099;DHT22;24844;52.380;7.018;2023-08-20T13:48:05;28.00;66.80
39099;DHT22;24844;52.380;7.018;2023-08-20T13:50:31;28.20;65.40
39099;DHT22;24844;52.380;7.018;2023-08-20T13:52:56;28.00;66.20
39099;DHT22;24844;52.380;7.018;2023-08-20T13:55:22;28.20;66.50
39099;DHT22;24844;52.380;7.018;2023-08-20T13:57:48;28.10;66.70
39099;DHT22;24844;52.380;7.018;2023-08-20T14:00:13;28.00;66.20
39099;DHT22;24844;52.380;7.018;2023-08-20T14:02:39;28.00;66.20
39099;DHT22;24844;52.380;7.018;2023-08-20T14:05:05;28.10;66.00
39099;DHT22;24844;52.380;7.018;2023-08-20T14:07:31;28.00;65.50
39099;DHT22;24844;52.380;7.018;2023-08-20T14:09:58;28.10;65.90
39099;DHT22;24844;52.380;7.018;2023-08-20T14:12:25;28.30;65.60
39099;DHT22;24844;52.380;7.018;2023-08-20T14:14:50;28.20;65.30
39099;DHT22;24844;52.380;7.018;2023-08-20T14:17:16;28.30;65.20
39099;DHT22;24844;52.380;7.018;2023-08-20T14:19:42;28.30;66.30
39099;DHT22;24844;52.380;7.018;2023-08-20T14:22:07;28.30;66.00
39099;DHT22;24844;52.380;7.018;2023-08-20T14:24:33;28.40;66.00
39099;DHT22;24844;52.380;7.018;2023-08-20T14:26:59;28.40;66.20
39099;DHT22;24844;52.380;7.018;2023-08-20T14:29:24;28.40;66.30
39099;DHT22;24844;52.380;7.018;2023-08-20T14:31:50;28.40;67.20
39099;DHT22;24844;52.380;7.018;2023-08-20T14:34:15;28.50;66.40
39099;DHT22;24844;52.380;7.018;2023-08-20T14:36:41;28.30;66.50
39099;DHT22;24844;52.380;7.018;2023-08-20T14:39:06;28.40;66.40
39099;DHT22;24844;52.380;7.018;2023-08-20T14:41:32;28.40;66.10
39099;DHT22;24844;52.380;7.018;2023-08-20T14:43:59;28.10;65.80
39099;DHT22;24844;52.380;7.018;2023-08-20T14:46:24;28.30;65.90
39099;DHT22;24844;52.380;7.018;2023-08-20T14:48:50;27.90;66.50
39099;DHT22;24844;52.380;7.018;2023-08-20T14:51:16;28.00;67.00
39099;DHT22;24844;52.380;7.018;2023-08-20T14:53:41;28.10;66.10
39099;DHT22;24844;52.380;7.018;2023-08-20T14:56:07;28.00;66.50
39099;DHT22;24844;52.380;7.018;2023-08-20T14:58:32;28.00;65.60
39099;DHT22;24844;52.380;7.018;2023-08-20T15:00:58;28.30;65.20
39099;DHT22;24844;52.380;7.018;2023-08-20T15:03:24;28.00;66.40
39099;DHT22;24844;52.380;7.018;2023-08-20T15:05:50;27.70;67.20
39099;DHT22;24844;52.380;7.018;2023-08-20T15:08:15;27.70;67.20
39099;DHT22;24844;52.380;7.018;2023-08-20T15:10:41;27.50;67.50
39099;DHT22;24844;52.380;7.018;2023-08-20T15:13:06;27.40;66.60
39099;DHT22;24844;52.380;7.018;2023-08-20T15:15:32;27.50;67.20
39099;DHT22;24844;52.380;7.018;2023-08-20T15:17:57;27.60;67.30
39099;DHT22;24844;52.380;7.018;2023-08-20T15:20:23;27.50;68.20
39099;DHT22;24844;52.380;7.018;2023-08-20T15:22:49;27.40;67.70
39099;DHT22;24844;52.380;7.018;2023-08-20T15:25:14;27.60;67.20
39099;DHT22;24844;52.380;7.018;2023-08-20T15:27:40;27.60;67.30
39099;DHT22;24844;52.380;7.018;2023-08-20T15:30:07;27.50;68.20
39099;DHT22;24844;52.380;7.018;2023-08-20T15:32:33;27.40;69.30
39099;DHT22;24844;52.380;7.018;2023-08-20T15:34:59;27.30;69.30
39099;DHT22;24844;52.380;7.018;2023-08-20T15:37:24;27.40;69.20
39099;DHT22;24844;52.380;7.018;2023-08-20T15:39:50;27.40;69.60
39099;DHT22;24844;52.380;7.018;2023-08-20T15:42:16;27.40;69.40
39099;DHT22;24844;52.380;7.018;2023-08-20T15:44:42;27.10;68.90
39099;DHT22;24844;52.380;7.018;2023-08-20T15:47:07;27.20;69.00
39099;DHT22;24844;52.380;7.018;2023-08-20T15:49:34;27.20;70.10
39099;DHT22;24844;52.380;7.018;2023-08-20T15:52:00;27.20;70.10
39099;DHT22;24844;52.380;7.018;2023-08-20T15:54:26;27.20;70.20
39099;DHT22;24844;52.380;7.018;2023-08-20T15:56:51;27.10;70.20
39099;DHT22;24844;52.380;7.018;2023-08-20T15:59:17;27.20;70.60
39099;DHT22;24844;52.380;7.018;2023-08-20T16:01:43;27.20;70.80
39099;DHT22;24844;52.380;7.018;2023-08-20T16:04:09;26.90;71.50
39099;DHT22;24844;52.380;7.018;2023-08-20T16:06:35;27.10;71.10